createdAt,value
2023-02-26T00:01:55.037Z,940.83
2023-02-26T00:04:21.328Z,940.57
2023-02-26T00:06:47.725Z,940.85
2023-02-26T00:09:14.059Z,940.60
2023-02-26T00:11:40.427Z,940.83
2023-02-26T00:14:06.746Z,940.61
2023-02-26T00:16:33.172Z,940.49
2023-02-26T00:18:59.539Z,940.66
2023-02-26T00:21:25.871Z,940.52
2023-02-26T00:23:52.182Z,940.50
2023-02-26T00:26:18.530Z,940.45
2023-02-26T00:28:44.917Z,940.49
2023-02-26T00:31:11.804Z,940.55
2023-02-26T00:33:38.094Z,940.54
2023-02-26T00:36:04.474Z,940.33
2023-02-26T00:38:30.824Z,940.40
2023-02-26T00:40:57.162Z,940.57
2023-02-26T00:43:23.487Z,940.57
2023-02-26T00:45:49.878Z,940.39
2023-02-26T00:48:16.529Z,940.41
2023-02-26T00:50:42.899Z,940.22
2023-02-26T00:53:09.262Z,940.27
2023-02-26T00:55:35.652Z,940.09
2023-02-26T00:58:02.241Z,940.14
2023-02-26T01:00:28.563Z,940.19
2023-02-26T01:02:54.871Z,940.22
2023-02-26T01:05:21.273Z,940.28
2023-02-26T01:07:47.627Z,940.25
2023-02-26T01:10:13.998Z,940.09
2023-02-26T01:12:40.360Z,940.20
2023-02-26T01:15:06.730Z,940.07
2023-02-26T01:17:33.091Z,940.13
2023-02-26T01:19:59.591Z,939.93
2023-02-26T01:22:25.943Z,939.80
2023-02-26T01:24:52.328Z,939.96
2023-02-26T01:27:18.668Z,939.80
2023-02-26T01:29:45.011Z,939.76
2023-02-26T01:32:11.512Z,939.63
2023-02-26T01:34:37.767Z,939.50
2023-02-26T01:37:04.149Z,939.45
2023-02-26T01:39:30.515Z,939.53
2023-02-26T01:41:56.978Z,939.34
2023-02-26T01:44:23.354Z,939.41
2023-02-26T01:46:49.814Z,939.56
2023-02-26T01:49:16.084Z,939.50
2023-02-26T01:51:42.462Z,939.48
2023-02-26T01:54:08.836Z,939.57
2023-02-26T01:56:35.195Z,939.50
2023-02-26T01:59:01.504Z,939.35
2023-02-26T02:01:27.898Z,939.63
2023-02-26T02:03:54.215Z,939.45
2023-02-26T02:06:20.611Z,939.26
2023-02-26T02:08:46.935Z,939.32
2023-02-26T02:11:13.311Z,939.27
2023-02-26T02:13:39.664Z,939.57
2023-02-26T02:16:06.104Z,939.12
2023-02-26T02:18:32.375Z,939.22
2023-02-26T02:20:58.803Z,939.32
2023-02-26T02:23:25.161Z,939.48
2023-02-26T02:25:51.490Z,939.46
2023-02-26T02:28:17.860Z,939.38
2023-02-26T02:30:44.253Z,939.28
2023-02-26T02:33:10.565Z,939.41
2023-02-26T02:35:36.956Z,939.41
2023-02-26T02:38:03.346Z,939.15
2023-02-26T02:40:29.685Z,939.23
2023-02-26T02:42:56.055Z,939.31
2023-02-26T02:45:22.424Z,939.47
2023-02-26T02:47:48.739Z,939.50
2023-02-26T02:50:15.118Z,939.58
2023-02-26T02:52:41.481Z,939.52
2023-02-26T02:55:07.852Z,939.49
2023-02-26T02:57:34.210Z,939.62
2023-02-26T03:00:00.550Z,939.45
2023-02-26T03:02:26.965Z,939.50
2023-02-26T03:04:53.233Z,939.47
2023-02-26T03:07:19.609Z,939.56
2023-02-26T03:09:45.978Z,939.62
2023-02-26T03:12:12.373Z,939.59
2023-02-26T03:14:38.708Z,939.62
2023-02-26T03:17:05.027Z,939.48
2023-02-26T03:19:31.452Z,939.46
2023-02-26T03:21:57.776Z,939.63
2023-02-26T03:24:24.160Z,939.44
2023-02-26T03:26:50.471Z,939.46
2023-02-26T03:29:16.808Z,939.52
2023-02-26T03:31:43.199Z,939.61
2023-02-26T03:34:09.518Z,939.44
2023-02-26T03:36:35.876Z,939.46
2023-02-26T03:39:02.248Z,939.50
2023-02-26T03:41:28.567Z,939.62
2023-02-26T03:43:54.920Z,939.45
2023-02-26T03:46:21.310Z,939.41
2023-02-26T03:48:47.643Z,939.38
2023-02-26T03:51:13.982Z,939.39
2023-02-26T03:53:40.316Z,939.31
2023-02-26T03:56:06.725Z,939.34
2023-02-26T03:58:33.061Z,939.41
2023-02-26T04:00:59.415Z,939.27
2023-02-26T04:03:25.764Z,939.25
2023-02-26T04:05:52.127Z,939.21
2023-02-26T04:08:18.513Z,939.19
2023-02-26T04:10:44.864Z,939.26
2023-02-26T04:13:11.244Z,939.36
2023-02-26T04:15:37.556Z,939.31
2023-02-26T04:18:04.159Z,939.14
2023-02-26T04:20:30.524Z,939.19
2023-02-26T04:22:56.905Z,939.13
2023-02-26T04:25:23.264Z,939.08
2023-02-26T04:27:49.594Z,939.26
2023-02-26T04:30:15.984Z,939.19
2023-02-26T04:32:42.273Z,938.93
2023-02-26T04:35:08.595Z,938.94
2023-02-26T04:37:34.939Z,939.06
2023-02-26T04:40:01.349Z,938.92
2023-02-26T04:42:27.736Z,938.84
2023-02-26T04:44:54.037Z,938.81
2023-02-26T04:47:20.469Z,938.76
2023-02-26T04:49:46.823Z,938.72
2023-02-26T04:52:13.214Z,938.73
2023-02-26T04:54:39.599Z,938.73
2023-02-26T04:57:05.937Z,938.66
2023-02-26T04:59:32.381Z,938.79
2023-02-26T05:01:58.791Z,938.75
2023-02-26T05:04:25.116Z,939.00
2023-02-26T05:06:51.412Z,938.77
2023-02-26T05:09:17.754Z,938.73
2023-02-26T05:11:44.141Z,938.92
2023-02-26T05:14:10.455Z,938.89
2023-02-26T05:16:36.894Z,938.79
2023-02-26T05:19:03.257Z,938.59
2023-02-26T05:21:29.626Z,938.72
2023-02-26T05:23:55.944Z,938.72
2023-02-26T05:26:22.347Z,938.75
2023-02-26T05:28:48.643Z,938.75
2023-02-26T05:31:15.107Z,938.66
2023-02-26T05:33:41.384Z,938.49
2023-02-26T05:36:07.796Z,938.83
2023-02-26T05:38:34.128Z,938.72
2023-02-26T05:41:00.505Z,938.57
2023-02-26T05:43:26.824Z,938.74
2023-02-26T05:45:53.208Z,938.63
2023-02-26T05:48:19.510Z,938.62
2023-02-26T05:50:45.938Z,938.63
2023-02-26T05:53:12.252Z,938.71
2023-02-26T05:55:38.593Z,938.73
2023-02-26T05:58:04.934Z,938.93
2023-02-26T06:00:31.313Z,938.94
2023-02-26T06:02:57.700Z,938.75
2023-02-26T06:05:24.069Z,938.63
2023-02-26T06:07:50.433Z,938.80
2023-02-26T06:10:16.796Z,938.82
2023-02-26T06:12:43.166Z,938.88
2023-02-26T06:15:09.614Z,938.90
2023-02-26T06:17:35.976Z,938.98
2023-02-26T06:20:02.416Z,938.86
2023-02-26T06:22:28.778Z,938.90
2023-02-26T06:24:55.171Z,938.93
2023-02-26T06:27:21.510Z,939.06
2023-02-26T06:29:47.848Z,939.05
2023-02-26T06:32:14.437Z,938.99
2023-02-26T06:34:40.625Z,939.17
2023-02-26T06:37:06.947Z,938.86
2023-02-26T06:39:33.344Z,938.91
2023-02-26T06:41:59.669Z,938.92
2023-02-26T06:44:26.450Z,939.05
2023-02-26T06:46:52.811Z,938.94
2023-02-26T06:49:19.157Z,939.04
2023-02-26T06:51:45.520Z,938.84
2023-02-26T06:54:11.941Z,938.94
2023-02-26T06:56:38.256Z,939.11
2023-02-26T06:59:04.598Z,939.08
2023-02-26T07:01:31.156Z,938.81
2023-02-26T07:03:57.439Z,938.99
2023-02-26T07:06:27.790Z,939.07
2023-02-26T07:08:50.157Z,938.87
2023-02-26T07:11:16.486Z,938.96
2023-02-26T07:13:42.911Z,939.00
2023-02-26T07:16:09.275Z,938.90
2023-02-26T07:18:35.627Z,938.86
2023-02-26T07:21:01.939Z,938.80
2023-02-26T07:23:28.347Z,938.79
2023-02-26T07:25:54.692Z,939.19
2023-02-26T07:28:21.207Z,939.19
2023-02-26T07:30:47.646Z,938.93
2023-02-26T07:33:14.304Z,938.78
2023-02-26T07:35:40.710Z,939.14
2023-02-26T07:38:07.677Z,938.79
2023-02-26T07:40:34.031Z,938.88
2023-02-26T07:43:00.954Z,938.67
2023-02-26T07:45:27.300Z,938.43
2023-02-26T07:47:53.654Z,938.97
2023-02-26T07:50:20.028Z,938.82
2023-02-26T07:52:46.406Z,938.94
2023-02-26T07:55:12.765Z,939.01
2023-02-26T07:57:40.498Z,939.59
2023-02-26T08:00:09.470Z,938.83
2023-02-26T08:02:33.216Z,938.97
2023-02-26T08:04:59.547Z,938.73
2023-02-26T08:07:25.894Z,938.77
2023-02-26T08:09:52.500Z,939.02
2023-02-26T08:12:18.834Z,938.93
2023-02-26T08:14:45.184Z,939.10
2023-02-26T08:17:11.921Z,938.83
2023-02-26T08:19:38.457Z,938.85
2023-02-26T08:22:04.837Z,938.87
2023-02-26T08:24:31.506Z,938.99
2023-02-26T08:26:57.883Z,939.07
2023-02-26T08:29:24.370Z,939.07
2023-02-26T08:31:50.915Z,938.99
2023-02-26T08:34:17.166Z,939.15
2023-02-26T08:36:43.540Z,939.11
2023-02-26T08:39:09.930Z,939.09
2023-02-26T08:41:36.287Z,939.21
2023-02-26T08:44:02.769Z,939.40
2023-02-26T08:46:29.640Z,939.36
2023-02-26T08:48:55.556Z,939.00
2023-02-26T08:51:21.943Z,939.14
2023-02-26T08:53:48.302Z,939.22
2023-02-26T08:56:14.691Z,939.30
2023-02-26T08:58:41.022Z,939.31
2023-02-26T09:01:07.364Z,939.24
2023-02-26T09:03:33.912Z,939.26
2023-02-26T09:06:00.332Z,939.30
2023-02-26T09:08:26.954Z,939.18
2023-02-26T09:10:53.342Z,938.93
2023-02-26T09:13:19.657Z,939.08
2023-02-26T09:15:46.118Z,939.09
2023-02-26T09:18:12.515Z,939.17
2023-02-26T09:20:39.018Z,939.07
2023-02-26T09:23:05.395Z,939.01
2023-02-26T09:25:31.818Z,938.98
2023-02-26T09:27:58.988Z,938.83
2023-02-26T09:30:24.517Z,938.98
2023-02-26T09:32:51.620Z,938.80
2023-02-26T09:35:18.238Z,938.93
2023-02-26T09:37:44.830Z,938.92
2023-02-26T09:40:11.214Z,939.08
2023-02-26T09:42:37.527Z,939.09
2023-02-26T09:45:03.909Z,939.04
2023-02-26T09:47:30.256Z,939.07
2023-02-26T09:49:56.589Z,939.09
2023-02-26T09:52:22.946Z,939.03
2023-02-26T09:54:49.346Z,938.86
2023-02-26T09:57:15.655Z,938.97
2023-02-26T09:59:42.046Z,938.98
2023-02-26T10:02:08.475Z,938.92
2023-02-26T10:04:34.891Z,938.74
2023-02-26T10:07:01.131Z,938.76
2023-02-26T10:09:27.489Z,938.87
2023-02-26T10:11:53.841Z,938.80
2023-02-26T10:14:20.173Z,938.86
2023-02-26T10:16:46.673Z,938.64
2023-02-26T10:19:12.925Z,938.81
2023-02-26T10:21:39.274Z,938.79
2023-02-26T10:24:05.662Z,939.07
2023-02-26T10:26:32.133Z,938.86
2023-02-26T10:28:58.473Z,939.25
2023-02-26T10:31:25.218Z,939.17
2023-02-26T10:33:51.223Z,938.81
2023-02-26T10:36:17.951Z,938.95
2023-02-26T10:38:44.275Z,938.94
2023-02-26T10:41:10.644Z,938.87
2023-02-26T10:43:37.044Z,938.81
2023-02-26T10:46:03.499Z,938.66
2023-02-26T10:48:29.812Z,938.61
2023-02-26T10:50:56.228Z,938.65
2023-02-26T10:53:22.810Z,938.59
2023-02-26T10:55:49.150Z,938.63
2023-02-26T10:58:15.488Z,938.58
2023-02-26T11:00:41.825Z,938.53
2023-02-26T11:03:08.177Z,938.50
2023-02-26T11:05:34.633Z,938.61
2023-02-26T11:08:01.027Z,938.59
2023-02-26T11:10:27.446Z,938.51
2023-02-26T11:12:53.819Z,938.41
2023-02-26T11:15:20.122Z,938.25
2023-02-26T11:17:46.468Z,938.37
2023-02-26T11:20:12.815Z,938.39
2023-02-26T11:22:39.144Z,938.39
2023-02-26T11:25:05.520Z,938.51
2023-02-26T11:27:31.917Z,938.67
2023-02-26T11:29:59.283Z,938.53
2023-02-26T11:32:25.979Z,938.70
2023-02-26T11:34:52.162Z,938.70
2023-02-26T11:37:18.476Z,938.79
2023-02-26T11:39:44.835Z,938.90
2023-02-26T11:42:11.164Z,938.86
2023-02-26T11:44:37.471Z,938.85
2023-02-26T11:47:03.819Z,938.61
2023-02-26T11:49:30.192Z,938.80
2023-02-26T11:51:56.649Z,938.79
2023-02-26T11:54:22.958Z,939.07
2023-02-26T11:56:49.572Z,938.80
2023-02-26T11:59:15.953Z,938.98
2023-02-26T12:01:42.260Z,938.97
2023-02-26T12:04:08.650Z,938.92
2023-02-26T12:06:35.180Z,938.97
2023-02-26T12:09:01.561Z,939.16
2023-02-26T12:11:28.424Z,939.04
2023-02-26T12:13:54.299Z,939.12
2023-02-26T12:16:20.669Z,939.18
2023-02-26T12:18:46.975Z,939.21
2023-02-26T12:21:13.337Z,939.29
2023-02-26T12:23:39.686Z,939.23
2023-02-26T12:26:06.125Z,939.25
2023-02-26T12:28:32.512Z,939.18
2023-02-26T12:30:59.707Z,939.13
2023-02-26T12:33:26.253Z,939.39
2023-02-26T12:35:52.614Z,939.57
2023-02-26T12:38:19.008Z,939.59
2023-02-26T12:40:45.366Z,939.41
2023-02-26T12:43:11.725Z,939.22
2023-02-26T12:45:38.069Z,939.29
2023-02-26T12:48:04.405Z,939.47
2023-02-26T12:50:30.809Z,939.55
2023-02-26T12:52:57.177Z,939.38
2023-02-26T12:55:23.500Z,939.39
2023-02-26T12:57:50.032Z,939.47
2023-02-26T13:00:16.403Z,939.33
2023-02-26T13:02:42.809Z,939.43
2023-02-26T13:05:09.109Z,939.48
2023-02-26T13:07:35.462Z,939.27
2023-02-26T13:10:01.787Z,939.32
2023-02-26T13:12:28.239Z,939.41
2023-02-26T13:14:54.559Z,939.48
2023-02-26T13:17:20.900Z,939.42
2023-02-26T13:19:47.252Z,939.49
2023-02-26T13:22:13.593Z,939.46
2023-02-26T13:24:39.947Z,939.44
2023-02-26T13:27:06.342Z,939.46
2023-02-26T13:29:32.683Z,939.50
2023-02-26T13:31:59.215Z,939.45
2023-02-26T13:34:25.356Z,939.44
2023-02-26T13:36:51.719Z,939.37
2023-02-26T13:39:18.064Z,939.37
2023-02-26T13:41:44.444Z,939.32
2023-02-26T13:44:13.744Z,939.31
2023-02-26T13:46:40.084Z,939.30
2023-02-26T13:49:06.405Z,939.31
2023-02-26T13:51:32.802Z,939.36
2023-02-26T13:53:59.161Z,939.24
2023-02-26T13:56:25.507Z,939.18
2023-02-26T13:58:51.876Z,939.35
2023-02-26T14:01:18.302Z,939.42
2023-02-26T14:03:44.582Z,939.47
2023-02-26T14:06:10.995Z,939.31
2023-02-26T14:08:37.329Z,939.21
2023-02-26T14:11:03.733Z,939.22
2023-02-26T14:13:30.131Z,939.18
2023-02-26T14:15:56.474Z,939.18
2023-02-26T14:18:22.836Z,939.46
2023-02-26T14:20:49.222Z,939.29
2023-02-26T14:23:15.581Z,939.30
2023-02-26T14:25:41.978Z,939.26
2023-02-26T14:28:08.289Z,939.19
2023-02-26T14:30:34.704Z,939.32
2023-02-26T14:33:01.018Z,939.45
2023-02-26T14:35:27.363Z,939.43
2023-02-26T14:37:53.784Z,939.53
2023-02-26T14:40:20.142Z,939.50
2023-02-26T14:42:46.457Z,939.58
2023-02-26T14:45:12.905Z,939.48
2023-02-26T14:47:39.288Z,939.51
2023-02-26T14:50:05.604Z,939.50
2023-02-26T14:52:31.960Z,939.47
2023-02-26T14:54:58.352Z,939.66
2023-02-26T14:57:24.846Z,939.56
2023-02-26T14:59:51.212Z,939.69
2023-02-26T15:02:17.717Z,939.71
2023-02-26T15:04:43.979Z,939.76
2023-02-26T15:07:10.351Z,939.69
2023-02-26T15:09:36.693Z,939.65
2023-02-26T15:12:03.044Z,939.77
2023-02-26T15:14:29.455Z,939.69
2023-02-26T15:16:55.772Z,939.61
2023-02-26T15:19:22.155Z,939.73
2023-02-26T15:21:48.527Z,939.69
2023-02-26T15:24:14.893Z,939.71
2023-02-26T15:26:41.266Z,939.77
2023-02-26T15:29:07.604Z,939.86
2023-02-26T15:31:34.134Z,939.91
2023-02-26T15:34:00.379Z,939.77
2023-02-26T15:36:26.996Z,939.92
2023-02-26T15:38:53.038Z,940.01
2023-02-26T15:41:19.368Z,940.06
2023-02-26T15:43:45.754Z,940.09
2023-02-26T15:46:12.174Z,940.05
2023-02-26T15:48:38.501Z,939.97
2023-02-26T15:51:04.847Z,940.14
2023-02-26T15:53:31.193Z,940.35
2023-02-26T15:55:57.598Z,940.10
2023-02-26T15:58:24.513Z,940.08
2023-02-26T16:00:51.034Z,940.15
2023-02-26T16:03:17.485Z,940.30
2023-02-26T16:05:43.812Z,940.24
2023-02-26T16:08:10.185Z,940.36
2023-02-26T16:10:36.502Z,940.31
2023-02-26T16:13:02.849Z,940.36
2023-02-26T16:15:29.181Z,940.47
2023-02-26T16:17:55.631Z,940.37
2023-02-26T16:20:21.952Z,940.36
2023-02-26T16:22:48.332Z,940.49
2023-02-26T16:25:14.836Z,940.57
2023-02-26T16:27:41.214Z,940.62
2023-02-26T16:30:07.544Z,940.46
2023-02-26T16:32:34.021Z,940.53
2023-02-26T16:35:00.362Z,940.54
2023-02-26T16:37:26.785Z,940.43
2023-02-26T16:39:53.125Z,940.63
2023-02-26T16:42:19.471Z,940.39
2023-02-26T16:44:45.838Z,940.28
2023-02-26T16:47:12.480Z,940.40
2023-02-26T16:49:38.861Z,940.65
2023-02-26T16:52:05.196Z,940.71
2023-02-26T16:54:32.716Z,940.71
2023-02-26T16:56:59.559Z,940.85
2023-02-26T16:59:25.914Z,940.60
2023-02-26T17:01:52.294Z,940.62
2023-02-26T17:04:19.733Z,940.51
2023-02-26T17:06:46.089Z,940.59
2023-02-26T17:09:12.415Z,940.71
2023-02-26T17:11:39.034Z,940.87
2023-02-26T17:14:05.941Z,941.10
2023-02-26T17:16:32.367Z,941.29
2023-02-26T17:18:58.652Z,941.14
2023-02-26T17:21:25.315Z,941.06
2023-02-26T17:23:51.735Z,941.20
2023-02-26T17:26:18.113Z,941.12
2023-02-26T17:28:44.471Z,940.84
2023-02-26T17:31:14.048Z,940.82
2023-02-26T17:33:40.391Z,941.06
2023-02-26T17:36:06.732Z,941.21
2023-02-26T17:38:33.121Z,940.97
2023-02-26T17:40:59.501Z,940.98
2023-02-26T17:43:26.850Z,941.06
2023-02-26T17:45:53.333Z,941.14
2023-02-26T17:48:19.647Z,941.15
2023-02-26T17:50:45.984Z,941.08
2023-02-26T17:53:12.592Z,941.06
2023-02-26T17:55:39.147Z,941.21
2023-02-26T17:58:05.490Z,941.33
2023-02-26T18:00:31.866Z,941.43
2023-02-26T18:02:58.231Z,941.25
2023-02-26T18:05:24.594Z,941.17
2023-02-26T18:07:50.923Z,941.14
2023-02-26T18:10:17.313Z,940.99
2023-02-26T18:12:43.714Z,941.38
2023-02-26T18:15:10.104Z,941.12
2023-02-26T18:17:36.461Z,941.20
2023-02-26T18:20:02.810Z,941.28
2023-02-26T18:22:29.139Z,941.11
2023-02-26T18:24:55.571Z,941.11
2023-02-26T18:27:21.967Z,941.08
2023-02-26T18:29:48.589Z,941.35
2023-02-26T18:32:15.182Z,941.44
2023-02-26T18:34:41.312Z,941.16
2023-02-26T18:37:07.657Z,941.14
2023-02-26T18:39:34.286Z,941.49
2023-02-26T18:42:00.615Z,941.60
2023-02-26T18:44:26.986Z,941.33
2023-02-26T18:46:53.311Z,941.23
2023-02-26T18:49:19.673Z,941.52
2023-02-26T18:51:46.040Z,941.47
2023-02-26T18:54:12.690Z,941.55
2023-02-26T18:56:39.066Z,941.48
2023-02-26T18:59:05.429Z,941.60
2023-02-26T19:01:32.126Z,941.72
2023-02-26T19:03:58.333Z,941.61
2023-02-26T19:06:24.712Z,941.68
2023-02-26T19:08:51.115Z,941.71
2023-02-26T19:11:17.423Z,941.69
2023-02-26T19:13:45.441Z,941.63
2023-02-26T19:16:10.329Z,941.76
2023-02-26T19:18:36.710Z,941.75
2023-02-26T19:21:03.059Z,941.73
2023-02-26T19:23:29.593Z,941.87
2023-02-26T19:25:59.049Z,941.96
2023-02-26T19:28:26.629Z,941.77
2023-02-26T19:30:53.162Z,941.98
2023-02-26T19:33:20.382Z,942.10
2023-02-26T19:35:48.068Z,941.94
2023-02-26T19:38:16.582Z,942.12
2023-02-26T19:40:43.024Z,942.23
2023-02-26T19:43:09.363Z,942.25
2023-02-26T19:45:35.862Z,942.22
2023-02-26T19:48:02.262Z,942.14
2023-02-26T19:50:28.625Z,942.23
2023-02-26T19:52:55.014Z,942.12
2023-02-26T19:55:21.385Z,942.14
2023-02-26T19:57:49.261Z,942.16
2023-02-26T20:00:14.455Z,942.26
2023-02-26T20:02:40.962Z,942.19
2023-02-26T20:05:07.286Z,942.23
2023-02-26T20:07:33.677Z,942.43
2023-02-26T20:10:00.098Z,942.42
2023-02-26T20:12:26.602Z,942.39
2023-02-26T20:14:52.979Z,942.30
2023-02-26T20:17:19.321Z,942.54
2023-02-26T20:19:45.690Z,942.60
2023-02-26T20:22:13.193Z,942.44
2023-02-26T20:24:39.682Z,942.56
2023-02-26T20:27:06.075Z,942.95
2023-02-26T20:29:32.843Z,942.89
2023-02-26T20:31:59.384Z,942.58
2023-02-26T20:34:25.916Z,942.68
2023-02-26T20:36:54.546Z,942.83
2023-02-26T20:39:18.700Z,943.09
2023-02-26T20:41:45.058Z,942.99
2023-02-26T20:44:11.381Z,942.70
2023-02-26T20:46:37.816Z,942.72
2023-02-26T20:49:04.114Z,943.05
2023-02-26T20:51:30.513Z,942.99
2023-02-26T20:53:57.301Z,942.72
2023-02-26T20:56:23.691Z,942.74
2023-02-26T20:58:50.012Z,943.10
2023-02-26T21:01:16.358Z,943.11
2023-02-26T21:03:42.717Z,943.12
2023-02-26T21:06:09.063Z,943.03
2023-02-26T21:08:35.463Z,943.15
2023-02-26T21:11:02.060Z,942.91
2023-02-26T21:13:28.443Z,942.84
2023-02-26T21:15:57.340Z,943.07
2023-02-26T21:18:23.621Z,943.04
2023-02-26T21:20:49.962Z,942.98
2023-02-26T21:23:16.296Z,943.25
2023-02-26T21:25:42.657Z,943.10
2023-02-26T21:28:09.011Z,942.95
2023-02-26T21:30:35.388Z,942.89
2023-02-26T21:33:01.734Z,943.04
2023-02-26T21:35:28.088Z,942.99
2023-02-26T21:37:54.546Z,943.02
2023-02-26T21:40:20.866Z,943.02
2023-02-26T21:42:47.230Z,942.97
2023-02-26T21:45:13.603Z,943.08
2023-02-26T21:47:39.912Z,943.19
2023-02-26T21:50:06.288Z,943.29
2023-02-26T21:52:32.696Z,943.26
2023-02-26T21:54:59.039Z,943.34
2023-02-26T21:57:25.403Z,943.34
2023-02-26T21:59:51.834Z,943.13
2023-02-26T22:02:18.207Z,943.25
2023-02-26T22:04:44.553Z,943.13
2023-02-26T22:07:10.991Z,943.29
2023-02-26T22:09:37.338Z,943.26
2023-02-26T22:12:03.665Z,943.18
2023-02-26T22:14:30.124Z,943.26
2023-02-26T22:16:56.501Z,943.34
2023-02-26T22:19:22.856Z,943.19
2023-02-26T22:21:49.221Z,943.19
2023-02-26T22:24:15.594Z,943.21
2023-02-26T22:26:41.926Z,943.32
2023-02-26T22:29:08.321Z,943.49
2023-02-26T22:31:34.781Z,943.38
2023-02-26T22:34:01.075Z,943.26
2023-02-26T22:36:27.462Z,943.33
2023-02-26T22:38:53.744Z,943.34
2023-02-26T22:41:20.128Z,943.52
2023-02-26T22:43:46.466Z,943.44
2023-02-26T22:46:12.912Z,943.28
2023-02-26T22:48:39.240Z,943.13
2023-02-26T22:51:05.591Z,943.53
2023-02-26T22:53:31.932Z,943.40
2023-02-26T22:55:58.315Z,943.19
2023-02-26T22:58:24.630Z,943.08
2023-02-26T23:00:51.022Z,943.36
2023-02-26T23:03:17.358Z,943.57
2023-02-26T23:05:43.755Z,943.67
2023-02-26T23:08:10.091Z,943.56
2023-02-26T23:10:36.506Z,943.46
2023-02-26T23:13:02.828Z,943.05
2023-02-26T23:15:29.232Z,943.18
2023-02-26T23:17:55.592Z,943.19
2023-02-26T23:20:21.961Z,943.26
2023-02-26T23:22:48.308Z,943.46
2023-02-26T23:25:14.648Z,943.34
2023-02-26T23:27:41.004Z,943.21
2023-02-26T23:30:07.322Z,943.18
2023-02-26T23:32:33.736Z,943.50
2023-02-26T23:35:00.026Z,943.59
2023-02-26T23:37:26.411Z,943.45
2023-02-26T23:39:52.885Z,943.52
2023-02-26T23:42:19.202Z,943.59
2023-02-26T23:44:45.585Z,943.43
2023-02-26T23:47:11.914Z,943.30
2023-02-26T23:49:38.255Z,943.25
2023-02-26T23:52:04.577Z,943.32
2023-02-26T23:54:30.943Z,943.33
2023-02-26T23:56:57.263Z,943.37
2023-02-26T23:59:23.610Z,943.49
